createdAt,value
2017-09-04T00:01:14.743Z,100753.31
2017-09-04T00:03:43.053Z,100753.68
2017-09-04T00:06:11.378Z,100752.19
2017-09-04T00:08:39.697Z,100752.92
2017-09-04T00:11:08.027Z,100751.52
2017-09-04T00:13:36.336Z,100756.83
2017-09-04T00:16:04.682Z,100754.22
2017-09-04T00:18:32.994Z,100753.81
2017-09-04T00:21:01.323Z,100751.97
2017-09-04T00:23:29.624Z,100748.44
2017-09-04T00:25:57.944Z,100748.20
2017-09-04T00:28:26.253Z,100749.61
2017-09-04T00:30:54.561Z,100752.20
2017-09-04T00:33:22.867Z,100747.19
2017-09-04T00:35:51.182Z,100751.23
2017-09-04T00:38:19.520Z,100757.64
2017-09-04T00:40:47.839Z,100755.97
2017-09-04T00:43:16.161Z,100759.44
2017-09-04T00:45:44.477Z,100754.20
2017-09-04T00:48:12.793Z,100758.44
2017-09-04T00:50:41.104Z,100750.05
2017-09-04T00:53:09.408Z,100762.16
2017-09-04T00:55:37.722Z,100760.13
2017-09-04T00:58:06.024Z,100757.56
2017-09-04T01:00:34.343Z,100756.22
2017-09-04T01:03:02.645Z,100758.02
2017-09-04T01:05:30.973Z,100758.89
2017-09-04T01:07:59.280Z,100752.36
2017-09-04T01:10:27.604Z,100760.27
2017-09-04T01:12:55.914Z,100758.38
2017-09-04T01:15:24.256Z,100752.83
2017-09-04T01:17:52.563Z,100750.24
2017-09-04T01:20:20.848Z,100750.52
2017-09-04T01:22:49.153Z,100752.83
2017-09-04T01:25:17.458Z,100747.03
2017-09-04T01:27:45.765Z,100750.24
2017-09-04T01:30:14.082Z,100741.20
2017-09-04T01:32:42.409Z,100748.89
2017-09-04T01:35:10.713Z,100748.77
2017-09-04T01:37:39.025Z,100747.48
2017-09-04T01:40:07.341Z,100743.62
2017-09-04T01:42:35.655Z,100739.72
2017-09-04T01:45:03.979Z,100744.15
2017-09-04T01:47:32.277Z,100749.70
2017-09-04T01:50:00.590Z,100749.86
2017-09-04T01:52:28.910Z,100755.58
2017-09-04T01:54:57.220Z,100749.08
2017-09-04T01:57:25.517Z,100742.37
2017-09-04T01:59:53.826Z,100747.80
2017-09-04T02:02:22.141Z,100744.72
2017-09-04T02:04:50.441Z,100748.79
2017-09-04T02:07:18.769Z,100745.95
2017-09-04T02:09:47.082Z,100743.74
2017-09-04T02:12:15.412Z,100739.26
2017-09-04T02:14:43.722Z,100741.48
2017-09-04T02:17:12.056Z,100738.77
2017-09-04T02:19:40.354Z,100740.57
2017-09-04T02:22:08.654Z,100743.45
2017-09-04T02:24:36.972Z,100739.22
2017-09-04T02:27:05.283Z,100734.42
2017-09-04T02:29:33.588Z,100732.04
2017-09-04T02:32:02.043Z,100738.45
2017-09-04T02:34:30.341Z,100733.42
2017-09-04T02:36:58.650Z,100736.60
2017-09-04T02:39:26.972Z,100739.97
2017-09-04T02:41:55.265Z,100740.22
2017-09-04T02:44:23.574Z,100737.47
2017-09-04T02:46:51.886Z,100739.67
2017-09-04T02:49:20.205Z,100738.82
2017-09-04T02:51:48.523Z,100734.38
2017-09-04T02:54:16.831Z,100737.12
2017-09-04T02:56:45.185Z,100736.05
2017-09-04T02:59:13.489Z,100738.97
2017-09-04T03:01:41.847Z,100731.00
2017-09-04T03:04:10.140Z,100738.94
2017-09-04T03:06:38.440Z,100731.25
2017-09-04T03:09:06.742Z,100726.40
2017-09-04T03:11:35.065Z,100732.83
2017-09-04T03:14:03.375Z,100730.70
2017-09-04T03:16:31.690Z,100735.42
2017-09-04T03:19:00.023Z,100745.67
2017-09-04T03:21:28.321Z,100734.37
2017-09-04T03:23:56.657Z,100735.78
2017-09-04T03:26:24.949Z,100735.83
2017-09-04T03:28:53.240Z,100732.98
2017-09-04T03:31:21.553Z,100731.75
2017-09-04T03:33:49.883Z,100728.70
2017-09-04T03:36:18.202Z,100730.85
2017-09-04T03:38:46.515Z,100734.87
2017-09-04T03:41:14.816Z,100741.73
2017-09-04T03:43:43.116Z,100737.59
2017-09-04T03:46:11.424Z,100737.33
2017-09-04T03:48:39.714Z,100737.21
2017-09-04T03:51:08.045Z,100736.62
2017-09-04T03:53:36.364Z,100740.48
2017-09-04T03:56:04.664Z,100739.07
2017-09-04T03:58:32.974Z,100741.25
2017-09-04T04:01:01.273Z,100735.33
2017-09-04T04:03:29.580Z,100744.84
2017-09-04T04:05:57.874Z,100747.99
2017-09-04T04:08:26.191Z,100743.37
2017-09-04T04:10:54.492Z,100743.92
2017-09-04T04:13:22.837Z,100743.34
2017-09-04T04:15:51.142Z,100741.55
2017-09-04T04:18:19.449Z,100743.05
2017-09-04T04:20:47.769Z,100754.11
2017-09-04T04:23:16.065Z,100750.20
2017-09-04T04:25:44.396Z,100746.57
2017-09-04T04:28:12.698Z,100752.49
2017-09-04T04:30:41.016Z,100749.26
2017-09-04T04:33:09.333Z,100755.47
2017-09-04T04:35:37.660Z,100753.91
2017-09-04T04:38:05.961Z,100753.64
2017-09-04T04:40:34.284Z,100747.95
2017-09-04T04:43:02.612Z,100754.70
2017-09-04T04:45:30.917Z,100746.58
2017-09-04T04:47:59.229Z,100752.19
2017-09-04T04:50:27.542Z,100751.88
2017-09-04T04:52:55.845Z,100756.94
2017-09-04T04:55:24.144Z,100755.48
2017-09-04T04:57:52.476Z,100762.97
2017-09-04T05:00:20.784Z,100758.60
2017-09-04T05:02:49.092Z,100761.34
2017-09-04T05:05:17.400Z,100762.34
2017-09-04T05:07:45.705Z,100760.86
2017-09-04T05:10:14.009Z,100758.66
2017-09-04T05:12:42.317Z,100757.47
2017-09-04T05:15:10.626Z,100762.03
2017-09-04T05:17:38.937Z,100752.83
2017-09-04T05:20:07.415Z,100748.37
2017-09-04T05:22:35.712Z,100750.94
2017-09-04T05:25:04.017Z,100750.07
2017-09-04T05:27:32.323Z,100738.67
2017-09-04T05:30:00.736Z,100740.00
2017-09-04T05:32:29.101Z,100741.95
2017-09-04T05:34:57.423Z,100740.62
2017-09-04T05:37:25.755Z,100736.99
2017-09-04T05:39:54.053Z,100741.16
2017-09-04T05:42:22.384Z,100743.16
2017-09-04T05:44:50.749Z,100736.56
2017-09-04T05:47:19.053Z,100734.97
2017-09-04T05:49:47.374Z,100732.53
2017-09-04T05:52:15.681Z,100735.47
2017-09-04T05:54:43.981Z,100738.30
2017-09-04T05:57:12.287Z,100733.77
2017-09-04T05:59:40.599Z,100732.06
2017-09-04T06:02:08.905Z,100739.52
2017-09-04T06:04:37.222Z,100736.92
2017-09-04T06:07:05.527Z,100742.68
2017-09-04T06:09:33.852Z,100742.47
2017-09-04T06:12:02.176Z,100741.00
2017-09-04T06:14:30.486Z,100745.52
2017-09-04T06:16:58.806Z,100754.96
2017-09-04T06:19:27.112Z,100754.02
2017-09-04T06:21:55.421Z,100749.21
2017-09-04T06:24:23.722Z,100747.15
2017-09-04T06:26:52.042Z,100754.97
2017-09-04T06:29:20.346Z,100749.16
2017-09-04T06:31:48.681Z,100752.22
2017-09-04T06:34:16.972Z,100748.45
2017-09-04T06:36:45.268Z,100748.11
2017-09-04T06:39:13.581Z,100753.11
2017-09-04T06:41:41.906Z,100756.02
2017-09-04T06:44:10.221Z,100764.41
2017-09-04T06:46:38.523Z,100765.70
2017-09-04T06:49:06.843Z,100775.13
2017-09-04T06:51:35.150Z,100768.78
2017-09-04T06:54:03.469Z,100765.99
2017-09-04T06:56:31.769Z,100763.02
2017-09-04T06:59:00.137Z,100757.87
2017-09-04T07:01:28.416Z,100770.20
2017-09-04T07:03:56.714Z,100772.68
2017-09-04T07:06:25.037Z,100778.59
2017-09-04T07:08:53.335Z,100779.28
2017-09-04T07:11:21.702Z,100783.72
2017-09-04T07:13:50.002Z,100780.25
2017-09-04T07:16:18.300Z,100783.31
2017-09-04T07:18:46.612Z,100791.85
2017-09-04T07:21:15.045Z,100785.48
2017-09-04T07:23:43.342Z,100789.07
2017-09-04T07:26:11.656Z,100794.84
2017-09-04T07:28:39.964Z,100803.73
2017-09-04T07:31:08.274Z,100803.34
2017-09-04T07:33:36.582Z,100807.61
2017-09-04T07:36:04.876Z,100810.57
2017-09-04T07:38:33.176Z,100805.66
2017-09-04T07:41:01.481Z,100810.56
2017-09-04T07:43:29.829Z,100803.90
2017-09-04T07:45:58.545Z,100818.66
2017-09-04T07:48:26.841Z,100822.34
2017-09-04T07:50:55.151Z,100820.20
2017-09-04T07:53:23.441Z,100833.32
2017-09-04T07:55:51.754Z,100827.44
2017-09-04T07:58:20.052Z,100831.66
2017-09-04T08:00:48.373Z,100832.35
2017-09-04T08:03:16.664Z,100838.86
2017-09-04T08:05:44.972Z,100834.70
2017-09-04T08:08:13.267Z,100836.88
2017-09-04T08:10:41.665Z,100840.69
2017-09-04T08:13:09.961Z,100833.16
2017-09-04T08:15:38.265Z,100837.81
2017-09-04T08:18:06.600Z,100837.92
2017-09-04T08:20:34.892Z,100839.63
2017-09-04T08:23:03.192Z,100841.14
2017-09-04T08:25:31.494Z,100842.36
2017-09-04T08:27:59.819Z,100843.45
2017-09-04T08:30:28.113Z,100834.70
2017-09-04T08:32:56.441Z,100838.00
2017-09-04T08:35:24.774Z,100842.97
2017-09-04T08:37:53.061Z,100841.59
2017-09-04T08:40:21.367Z,100841.00
2017-09-04T08:42:49.659Z,100840.48
2017-09-04T08:45:17.969Z,100843.36
2017-09-04T08:47:46.269Z,100845.51
2017-09-04T08:50:14.570Z,100843.14
2017-09-04T08:52:42.872Z,100844.05
2017-09-04T08:55:11.185Z,100851.77
2017-09-04T08:57:39.486Z,100849.05
2017-09-04T09:00:07.797Z,100852.39
2017-09-04T09:02:36.105Z,100850.00
2017-09-04T09:05:04.398Z,100847.88
2017-09-04T09:07:32.713Z,100849.41
2017-09-04T09:10:01.007Z,100852.96
2017-09-04T09:12:29.309Z,100853.36
2017-09-04T09:14:57.609Z,100853.21
2017-09-04T09:17:25.918Z,100860.29
2017-09-04T09:19:54.216Z,100864.89
2017-09-04T09:22:22.521Z,100861.09
2017-09-04T09:24:50.824Z,100861.31
2017-09-04T09:27:23.915Z,100867.92
2017-09-04T09:29:52.229Z,100874.52
2017-09-04T09:32:20.531Z,100869.55
2017-09-04T09:34:48.832Z,100870.22
2017-09-04T09:37:17.121Z,100869.41
2017-09-04T09:39:45.551Z,100867.63
2017-09-04T09:42:13.856Z,100867.63
2017-09-04T09:44:42.204Z,100876.35
2017-09-04T09:47:10.500Z,100870.98
2017-09-04T09:49:38.800Z,100863.89
2017-09-04T09:52:07.114Z,100865.95
2017-09-04T09:54:35.411Z,100867.50
2017-09-04T09:57:03.713Z,100865.53
2017-09-04T09:59:32.064Z,100862.35
2017-09-04T10:02:00.386Z,100856.11
2017-09-04T10:04:28.676Z,100859.62
2017-09-04T10:06:56.982Z,100859.12
2017-09-04T10:09:25.287Z,100858.27
2017-09-04T10:11:53.585Z,100859.06
2017-09-04T10:14:21.894Z,100866.11
2017-09-04T10:16:50.188Z,100859.55
2017-09-04T10:19:18.498Z,100856.42
2017-09-04T10:21:46.793Z,100862.30
2017-09-04T10:24:15.106Z,100850.77
2017-09-04T10:26:43.404Z,100847.57
2017-09-04T10:29:11.715Z,100858.37
2017-09-04T10:31:40.005Z,100853.78
2017-09-04T10:34:08.344Z,100845.16
2017-09-04T10:36:36.640Z,100852.30
2017-09-04T10:39:04.953Z,100859.58
2017-09-04T10:41:33.264Z,100846.48
2017-09-04T10:44:01.553Z,100851.86
2017-09-04T10:46:29.862Z,100857.57
2017-09-04T10:48:58.172Z,100859.12
2017-09-04T10:51:26.491Z,100849.72
2017-09-04T10:53:54.788Z,100852.77
2017-09-04T10:56:23.097Z,100854.25
2017-09-04T10:58:51.388Z,100850.41
2017-09-04T11:01:19.686Z,100849.70
2017-09-04T11:03:47.989Z,100843.34
2017-09-04T11:06:16.281Z,100846.28
2017-09-04T11:08:44.589Z,100842.47
2017-09-04T11:11:12.893Z,100854.14
2017-09-04T11:13:41.193Z,100845.02
2017-09-04T11:16:09.489Z,100835.86
2017-09-04T11:18:37.803Z,100832.19
2017-09-04T11:21:06.099Z,100843.87
2017-09-04T11:23:34.390Z,100846.55
2017-09-04T11:26:02.688Z,100845.47
2017-09-04T11:28:30.986Z,100847.00
2017-09-04T11:30:59.309Z,100847.84
2017-09-04T11:33:27.611Z,100844.16
2017-09-04T11:35:55.935Z,100838.13
2017-09-04T11:38:24.235Z,100847.84
2017-09-04T11:40:52.533Z,100855.81
2017-09-04T11:43:20.832Z,100837.73
2017-09-04T11:45:49.187Z,100849.72
2017-09-04T11:48:17.473Z,100845.77
2017-09-04T11:50:45.787Z,100838.05
2017-09-04T11:53:14.097Z,100838.41
2017-09-04T11:55:42.395Z,100846.41
2017-09-04T11:58:10.700Z,100843.67
2017-09-04T12:00:39.015Z,100836.70
2017-09-04T12:03:07.324Z,100846.48
2017-09-04T12:05:35.629Z,100851.73
2017-09-04T12:08:03.941Z,100846.37
2017-09-04T12:10:32.318Z,100853.55
2017-09-04T12:13:00.617Z,100845.44
2017-09-04T12:15:28.920Z,100844.16
2017-09-04T12:17:57.233Z,100840.63
2017-09-04T12:20:25.549Z,100847.03
2017-09-04T12:22:53.845Z,100839.72
2017-09-04T12:25:22.174Z,100830.94
2017-09-04T12:27:50.480Z,100828.97
2017-09-04T12:30:18.786Z,100832.02
2017-09-04T12:32:47.085Z,100826.27
2017-09-04T12:35:15.401Z,100831.42
2017-09-04T12:37:43.706Z,100835.52
2017-09-04T12:40:12.696Z,100829.13
2017-09-04T12:42:41.018Z,100830.16
2017-09-04T12:45:09.308Z,100824.86
2017-09-04T12:47:37.621Z,100823.45
2017-09-04T12:50:05.929Z,100815.11
2017-09-04T12:52:34.238Z,100824.97
2017-09-04T12:55:02.546Z,100816.17
2017-09-04T12:57:30.850Z,100824.50
2017-09-04T12:59:59.153Z,100831.27
2017-09-04T13:02:27.468Z,100823.03
2017-09-04T13:04:55.766Z,100829.00
2017-09-04T13:07:24.107Z,100822.89
2017-09-04T13:09:52.416Z,100812.32
2017-09-04T13:12:22.554Z,100817.72
2017-09-04T13:14:56.287Z,100819.44
2017-09-04T13:17:36.294Z,100822.05
2017-09-04T13:20:10.262Z,100822.22
2017-09-04T13:22:43.881Z,100821.31
2017-09-04T13:28:24.345Z,100821.22
2017-09-04T13:30:58.134Z,100828.92
2017-09-04T13:36:37.456Z,100826.79
2017-09-04T13:42:26.168Z,100831.02
2017-09-04T13:45:00.001Z,100829.03
2017-09-04T13:47:33.573Z,100837.49
2017-09-04T13:50:01.872Z,100835.94
2017-09-04T13:55:34.641Z,100830.88
2017-09-04T13:58:21.646Z,100828.12
2017-09-04T14:00:55.617Z,100821.55
2017-09-04T14:03:28.081Z,100821.62
2017-09-04T14:12:26.272Z,100821.28
2017-09-04T14:14:59.999Z,100826.88
2017-09-04T14:17:33.921Z,100824.59
2017-09-04T14:20:02.226Z,100823.14
2017-09-04T14:22:30.532Z,100824.80
2017-09-04T14:24:58.849Z,100824.11
2017-09-04T14:27:27.136Z,100820.57
2017-09-04T14:29:55.442Z,100827.88
2017-09-04T14:32:23.749Z,100831.03
2017-09-04T14:34:52.067Z,100827.62
2017-09-04T14:37:20.375Z,100835.42
2017-09-04T14:39:48.684Z,100831.17
2017-09-04T14:42:16.981Z,100832.72
2017-09-04T14:45:00.166Z,100829.69
2017-09-04T14:47:30.806Z,100827.86
2017-09-04T14:49:59.134Z,100836.23
2017-09-04T14:52:27.438Z,100835.38
2017-09-04T14:54:55.732Z,100839.17
2017-09-04T14:57:24.067Z,100836.08
2017-09-04T14:59:52.377Z,100830.84
2017-09-04T15:02:20.693Z,100828.95
2017-09-04T15:04:49.002Z,100830.03
2017-09-04T15:07:17.313Z,100837.20
2017-09-04T15:09:45.619Z,100834.50
2017-09-04T15:12:13.921Z,100839.25
2017-09-04T15:14:42.225Z,100837.27
2017-09-04T15:17:10.567Z,100837.16
2017-09-04T15:19:38.860Z,100840.47
2017-09-04T15:22:07.168Z,100844.98
2017-09-04T15:24:35.472Z,100848.13
2017-09-04T15:27:03.773Z,100841.34
2017-09-04T15:29:32.241Z,100841.08
2017-09-04T15:32:00.529Z,100847.31
2017-09-04T15:34:28.833Z,100852.31
2017-09-04T15:36:57.134Z,100858.65
2017-09-04T15:39:25.443Z,100850.98
2017-09-04T15:41:53.733Z,100844.06
2017-09-04T15:44:22.057Z,100850.82
2017-09-04T15:46:50.374Z,100851.27
2017-09-04T15:49:18.685Z,100848.50
2017-09-04T15:51:46.998Z,100851.66
2017-09-04T15:54:15.303Z,100856.30
2017-09-04T15:56:43.621Z,100854.94
2017-09-04T15:59:11.922Z,100862.08
2017-09-04T16:01:40.233Z,100853.98
2017-09-04T16:04:08.540Z,100851.88
2017-09-04T16:06:37.168Z,100849.73
2017-09-04T16:09:05.460Z,100855.84
2017-09-04T16:11:34.054Z,100859.63
2017-09-04T16:14:03.016Z,100863.94
2017-09-04T16:16:41.879Z,100860.65
2017-09-04T16:19:14.021Z,100864.55
2017-09-04T16:21:43.153Z,100863.85
2017-09-04T16:24:12.111Z,100866.18
2017-09-04T16:26:46.717Z,100865.44
2017-09-04T16:32:24.709Z,100871.64
2017-09-04T16:34:54.916Z,100870.90
2017-09-04T16:37:33.914Z,100872.78
2017-09-04T16:40:02.220Z,100872.30
2017-09-04T16:42:33.637Z,100876.86
2017-09-04T16:45:06.729Z,100879.81
2017-09-04T16:47:48.637Z,100883.96
2017-09-04T16:50:27.769Z,100867.61
2017-09-04T16:52:57.369Z,100880.79
2017-09-04T16:58:30.984Z,100888.91
2017-09-04T17:00:59.298Z,100879.32
2017-09-04T17:03:27.599Z,100889.05
2017-09-04T17:05:55.905Z,100886.99
2017-09-04T17:08:40.014Z,100892.51
2017-09-04T17:11:09.105Z,100892.88
2017-09-04T17:13:37.406Z,100893.95
2017-09-04T17:16:07.628Z,100897.08
2017-09-04T17:18:35.928Z,100901.70
2017-09-04T17:21:14.146Z,100900.98
2017-09-04T17:23:42.460Z,100910.83
2017-09-04T17:26:10.766Z,100912.39
2017-09-04T17:28:39.068Z,100907.44
2017-09-04T17:31:07.383Z,100911.11
2017-09-04T17:33:35.696Z,100902.36
2017-09-04T17:36:04.048Z,100903.91
2017-09-04T17:38:32.351Z,100909.52
2017-09-04T17:41:00.661Z,100914.55
2017-09-04T17:43:28.972Z,100919.44
2017-09-04T17:45:57.270Z,100918.28
2017-09-04T17:48:25.592Z,100927.16
2017-09-04T17:50:53.897Z,100926.18
2017-09-04T17:53:22.200Z,100928.47
2017-09-04T17:55:50.580Z,100930.85
2017-09-04T17:58:18.914Z,100926.62
2017-09-04T18:00:47.209Z,100930.22
2017-09-04T18:03:15.509Z,100933.52
2017-09-04T18:05:43.819Z,100934.22
2017-09-04T18:08:12.112Z,100939.88
2017-09-04T18:10:40.425Z,100947.81
2017-09-04T18:13:08.732Z,100955.50
2017-09-04T18:15:37.053Z,100957.84
2017-09-04T18:18:05.356Z,100957.39
2017-09-04T18:20:33.691Z,100961.09
2017-09-04T18:23:01.989Z,100956.55
2017-09-04T18:25:30.285Z,100956.49
2017-09-04T18:27:58.587Z,100962.78
2017-09-04T18:30:26.891Z,100961.25
2017-09-04T18:32:55.206Z,100961.77
2017-09-04T18:35:23.505Z,100969.78
2017-09-04T18:37:51.830Z,100972.20
2017-09-04T18:40:20.154Z,100968.59
2017-09-04T18:42:48.470Z,100972.36
2017-09-04T18:45:16.781Z,100973.66
2017-09-04T18:47:45.119Z,100973.91
2017-09-04T18:50:13.456Z,100971.15
2017-09-04T18:52:41.781Z,100978.50
2017-09-04T18:55:10.088Z,100986.36
2017-09-04T18:57:38.388Z,100981.52
2017-09-04T19:00:06.693Z,100995.66
2017-09-04T19:02:35.031Z,100991.67
2017-09-04T19:05:03.343Z,100990.39
2017-09-04T19:07:31.651Z,100996.94
2017-09-04T19:09:59.981Z,100998.92
2017-09-04T19:12:28.291Z,100999.66
2017-09-04T19:14:56.609Z,101003.27
2017-09-04T19:17:24.909Z,100999.78
2017-09-04T19:19:53.250Z,100991.81
2017-09-04T19:22:21.613Z,100999.83
2017-09-04T19:24:49.925Z,100998.84
2017-09-04T19:27:18.253Z,101004.11
2017-09-04T19:29:46.577Z,101003.88
2017-09-04T19:32:14.924Z,101005.45
2017-09-04T19:34:43.221Z,101006.30
2017-09-04T19:37:11.537Z,101007.59
2017-09-04T19:39:39.849Z,101006.15
2017-09-04T19:42:08.161Z,101004.84
2017-09-04T19:44:36.461Z,101007.58
2017-09-04T19:47:04.784Z,101005.00
2017-09-04T19:49:33.084Z,101014.13
2017-09-04T19:52:01.382Z,101013.63
2017-09-04T19:54:29.697Z,101011.04
2017-09-04T19:56:57.989Z,101013.78
2017-09-04T19:59:26.305Z,101014.35
2017-09-04T20:01:54.592Z,101012.80
2017-09-04T20:04:22.924Z,101012.63
2017-09-04T20:06:51.521Z,101014.13
2017-09-04T20:09:19.875Z,101022.83
2017-09-04T20:11:48.166Z,101022.97
2017-09-04T20:14:16.477Z,101030.30
2017-09-04T20:16:44.785Z,101028.83
2017-09-04T20:19:13.086Z,101026.42
2017-09-04T20:21:41.401Z,101031.03
2017-09-04T20:24:09.701Z,101028.89
2017-09-04T20:26:38.017Z,101034.43
2017-09-04T20:29:07.154Z,101033.38
2017-09-04T20:31:35.477Z,101040.84
2017-09-04T20:34:03.778Z,101033.98
2017-09-04T20:36:32.105Z,101033.75
2017-09-04T20:39:00.422Z,101032.59
2017-09-04T20:41:28.750Z,101035.59
2017-09-04T20:43:57.061Z,101033.22
2017-09-04T20:46:25.352Z,101033.13
2017-09-04T20:48:53.663Z,101038.45
2017-09-04T20:51:21.957Z,101041.44
2017-09-04T20:53:50.266Z,101041.88
2017-09-04T20:56:18.574Z,101046.42
2017-09-04T20:58:46.880Z,101046.56
2017-09-04T21:01:15.181Z,101044.79
2017-09-04T21:03:43.485Z,101051.37
2017-09-04T21:06:11.776Z,101050.08
2017-09-04T21:08:40.085Z,101049.28
2017-09-04T21:11:08.386Z,101049.36
2017-09-04T21:13:36.710Z,101054.69
2017-09-04T21:16:05.020Z,101043.70
2017-09-04T21:18:33.358Z,101040.52
2017-09-04T21:21:01.668Z,101042.61
2017-09-04T21:23:29.962Z,101046.64
2017-09-04T21:25:58.274Z,101044.63
2017-09-04T21:28:26.577Z,101049.44
2017-09-04T21:30:54.898Z,101038.34
2017-09-04T21:33:23.205Z,101045.77
2017-09-04T21:35:51.513Z,101050.08
2017-09-04T21:38:19.832Z,101046.24
2017-09-04T21:40:48.152Z,101040.73
2017-09-04T21:43:17.274Z,101048.91
2017-09-04T21:45:45.596Z,101043.81
2017-09-04T21:48:14.822Z,101038.97
2017-09-04T21:50:43.165Z,101040.70
2017-09-04T21:53:11.466Z,101044.13
2017-09-04T21:55:40.665Z,101051.67
2017-09-04T21:58:08.994Z,101049.45
2017-09-04T22:00:37.308Z,101055.16
2017-09-04T22:03:05.625Z,101058.48
2017-09-04T22:05:33.945Z,101063.04
2017-09-04T22:08:02.278Z,101062.78
2017-09-04T22:10:30.589Z,101057.65
2017-09-04T22:12:58.918Z,101058.48
2017-09-04T22:15:27.226Z,101058.89
2017-09-04T22:17:55.553Z,101063.27
2017-09-04T22:20:23.873Z,101075.09
2017-09-04T22:22:52.595Z,101071.95
2017-09-04T22:25:21.169Z,101073.69
2017-09-04T22:27:49.592Z,101077.50
2017-09-04T22:30:17.939Z,101074.49
2017-09-04T22:32:46.249Z,101085.58
2017-09-04T22:35:14.597Z,101081.77
2017-09-04T22:37:42.909Z,101088.52
2017-09-04T22:40:11.209Z,101087.27
2017-09-04T22:42:39.549Z,101087.72
2017-09-04T22:45:07.853Z,101092.14
2017-09-04T22:47:36.165Z,101079.24
2017-09-04T22:50:04.475Z,101090.22
2017-09-04T22:52:32.809Z,101092.37
2017-09-04T22:55:01.138Z,101092.44
2017-09-04T22:57:29.495Z,101088.94
2017-09-04T22:59:57.805Z,101093.80
2017-09-04T23:02:26.106Z,101091.48
2017-09-04T23:04:54.421Z,101095.64
2017-09-04T23:07:22.733Z,101100.30
2017-09-04T23:09:51.057Z,101097.66
2017-09-04T23:12:19.365Z,101104.27
2017-09-04T23:14:47.673Z,101103.66
2017-09-04T23:17:15.986Z,101104.69
2017-09-04T23:19:44.315Z,101106.00
2017-09-04T23:22:12.629Z,101110.95
2017-09-04T23:24:40.937Z,101105.97
2017-09-04T23:27:09.241Z,101106.14
2017-09-04T23:29:37.569Z,101102.64
2017-09-04T23:32:05.894Z,101106.86
2017-09-04T23:34:34.197Z,101103.67
2017-09-04T23:37:02.535Z,101104.50
2017-09-04T23:39:30.845Z,101107.52
2017-09-04T23:41:59.156Z,101106.78
2017-09-04T23:44:27.474Z,101107.94
2017-09-04T23:47:01.736Z,101103.91
2017-09-04T23:49:30.063Z,101102.00
2017-09-04T23:51:58.372Z,101106.29
2017-09-04T23:54:26.693Z,101098.59
2017-09-04T23:56:54.992Z,101100.12
2017-09-04T23:59:23.305Z,101097.37
